Wauchula, Florida
Current Conditions -  °F | °C
As of 11:50 AM on Wednesday 26 Nov 2014 (Local Time) from KBOW Reporting Station
Broken Clouds Broken Clouds  
Wind Chill: 52°   Ceiling: 11000
Heat Index: 52°   Visibility: 10mi
Dew Point: 52°   Wind: 12mph
Humidity: 100%   Direction: 310°NW
Pressure: 30.16"   Gusts: NA
Location:  27.55°N, 81.81°W
Report Text: KBOW 261650Z 31010KT 10SM SCT090 BKN110 11/11 A3016
Loading
Personal Weather Stations






























Interactive Weather Map New forecast layout! Learn more

10-Day Weather Forecast

Advertisements
Track Severe Weather on mobile